Main page
METAR-TAF:

METAR-TAF

Airports :

Bandar Lengeh Airport

Bandar Lengeh, Iran

latitude: 26-35N, longitude: 054-50E, elevation: 14 m

Current weather observation

The report was made 57 minutes ago, at 21:00 UTC
Wind 4 kt from the West
Temperature 28°C
Humidity 84%
Pressure 1002 hPa
Visibility: 6000 m

METAR: OIBL 192100Z 27004KT 6000 NSC 28/25 Q1002

Time: 02:27 (21:57 UTC)


TAF: missing

Weather observations and forecasts of more than 4000 airports (METAR and TAF reports).

The available stations are represented by yellow and red dots on the map.

Hover mouse over dot to see the name of the station.

Then click to see weather observations and forecasts.

To change the map : click on the green buttons with a black cross to zoom in, on the green button with a dash to zoom out, or on the green arrows for adjacent maps.


METAR-TAF: